Time;durP1;ratioP1;P1;durP2;ratioP2;P2;SDS_P1;SDS_P2;PMS_P1;PMS_P2;Temp;Humidity;BMP_temperature;BMP_pressure;BME280_temperature;BME280_humidity;BME280_pressure;Samples;Min_cycle;Max_cycle;Signal;HPM_P1;HPM_P2
2024/02/18 00:00:42;;;;;;;122.03;89.28;;;;;;;;;;9922458;28;20130;-88
2024/02/18 00:05:35;;;;;;;114.38;82.57;;;;;;;;;;9920689;28;20054;-86
2024/02/18 00:10:27;;;;;;;105.30;74.70;;;;;;;;;;9919680;28;20386;-85
2024/02/18 00:15:19;;;;;;;92.57;72.32;;;;;;;;;;9907827;28;20046;-86
2024/02/18 00:20:12;;;;;;;96.93;75.22;;;;;;;;;;9907997;28;20059;-85
2024/02/18 00:25:07;;;;;;;103.55;76.28;;;;;;;;;;9925166;28;20458;-87
2024/02/18 00:29:59;;;;;;;107.13;75.53;;;;;;;;;;9928820;28;20046;-79
2024/02/18 00:34:51;;;;;;;98.07;75.72;;;;;;;;;;9911679;28;20128;-84
2024/02/18 00:39:44;;;;;;;99.40;71.90;;;;;;;;;;9911980;28;20044;-85
2024/02/18 00:44:36;;;;;;;97.75;75.25;;;;;;;;;;9909423;28;20050;-84
2024/02/18 00:49:28;;;;;;;95.63;72.60;;;;;;;;;;9913566;28;20051;-84
2024/02/18 00:54:20;;;;;;;95.65;72.10;;;;;;;;;;9911296;28;20055;-85
2024/02/18 00:59:16;;;;;;;87.68;65.90;;;;;;;;;;9910526;28;20047;-83
2024/02/18 01:04:08;;;;;;;88.07;67.30;;;;;;;;;;9916101;28;20047;-83
2024/02/18 01:09:01;;;;;;;91.07;69.30;;;;;;;;;;9910316;28;20047;-84
2024/02/18 01:13:53;;;;;;;96.43;70.03;;;;;;;;;;9914075;28;20126;-84
2024/02/18 01:18:45;;;;;;;89.05;66.38;;;;;;;;;;9926307;28;20054;-83
2024/02/18 01:23:38;;;;;;;103.18;74.05;;;;;;;;;;9943152;28;20134;-84
2024/02/18 01:28:30;;;;;;;105.18;75.35;;;;;;;;;;9934155;28;20094;-83
2024/02/18 01:33:23;;;;;;;115.20;83.20;;;;;;;;;;9937863;28;20086;-84
2024/02/18 01:38:15;;;;;;;112.03;79.57;;;;;;;;;;9946015;28;20214;-84
2024/02/18 01:43:07;;;;;;;109.40;79.13;;;;;;;;;;9943113;28;20454;-84
2024/02/18 01:47:59;;;;;;;113.65;83.50;;;;;;;;;;9947410;28;20070;-84
2024/02/18 01:52:52;;;;;;;115.63;84.80;;;;;;;;;;9929258;28;20058;-84
2024/02/18 01:57:44;;;;;;;108.70;84.35;;;;;;;;;;9946587;28;20134;-84
2024/02/18 02:02:36;;;;;;;123.03;89.20;;;;;;;;;;9929370;28;20457;-84
2024/02/18 02:07:28;;;;;;;117.10;88.07;;;;;;;;;;9946236;28;20106;-84
2024/02/18 02:12:20;;;;;;;124.90;94.55;;;;;;;;;;9893594;28;20055;-83
2024/02/18 02:17:14;;;;;;;135.63;92.00;;;;;;;;;;9909979;28;20070;-84
2024/02/18 02:22:06;;;;;;;131.25;92.40;;;;;;;;;;9910269;28;20526;-83
2024/02/18 02:26:59;;;;;;;126.75;93.60;;;;;;;;;;9910105;28;20059;-84
2024/02/18 02:31:51;;;;;;;144.13;99.65;;;;;;;;;;9909303;28;20098;-84
2024/02/18 02:36:47;;;;;;;127.18;92.53;;;;;;;;;;9909683;28;20394;-84
2024/02/18 02:41:39;;;;;;;118.90;86.20;;;;;;;;;;9909917;28;20431;-84
2024/02/18 02:46:31;;;;;;;114.55;87.20;;;;;;;;;;9915875;28;20139;-83
2024/02/18 02:51:23;;;;;;;122.75;88.65;;;;;;;;;;9916901;28;20055;-83
2024/02/18 02:56:15;;;;;;;118.68;86.72;;;;;;;;;;9918570;28;20512;-83
2024/02/18 03:01:07;;;;;;;117.78;89.70;;;;;;;;;;9928154;28;20050;-84
2024/02/18 03:05:59;;;;;;;110.38;82.88;;;;;;;;;;9916492;28;20051;-85
2024/02/18 03:10:51;;;;;;;112.47;81.03;;;;;;;;;;9916459;28;21065;-84
2024/02/18 03:15:43;;;;;;;100.53;77.32;;;;;;;;;;9916530;28;20050;-85
2024/02/18 03:20:35;;;;;;;115.03;78.80;;;;;;;;;;9915717;28;20058;-84
2024/02/18 03:25:27;;;;;;;103.53;75.30;;;;;;;;;;9912796;28;20386;-85
2024/02/18 03:30:20;;;;;;;100.25;73.47;;;;;;;;;;9915471;28;20043;-84
2024/02/18 03:35:12;;;;;;;99.68;71.35;;;;;;;;;;9915819;28;20085;-84
2024/02/18 03:40:06;;;;;;;97.22;74.70;;;;;;;;;;9914611;28;20101;-85
2024/02/18 03:44:58;;;;;;;98.93;70.57;;;;;;;;;;9915485;28;20055;-84
2024/02/18 03:49:50;;;;;;;89.93;65.85;;;;;;;;;;9924534;28;20043;-85
2024/02/18 03:54:42;;;;;;;92.40;70.10;;;;;;;;;;9912996;28;20078;-85
2024/02/18 03:59:34;;;;;;;89.40;64.15;;;;;;;;;;9914216;28;20470;-86
2024/02/18 04:04:26;;;;;;;84.90;61.15;;;;;;;;;;9913503;28;20059;-85
2024/02/18 04:09:18;;;;;;;88.20;62.58;;;;;;;;;;9914232;28;20098;-86
2024/02/18 04:14:10;;;;;;;82.30;62.88;;;;;;;;;;9914483;28;20075;-85
2024/02/18 04:19:02;;;;;;;95.63;66.75;;;;;;;;;;9917518;28;20063;-86
2024/02/18 04:23:54;;;;;;;94.97;71.32;;;;;;;;;;9912806;28;20051;-86
2024/02/18 04:28:46;;;;;;;92.25;68.28;;;;;;;;;;9914286;28;20039;-85
2024/02/18 04:33:38;;;;;;;89.32;61.72;;;;;;;;;;9916363;28;20102;-86
2024/02/18 04:38:30;;;;;;;86.18;61.65;;;;;;;;;;9911861;28;20074;-86
2024/02/18 04:43:22;;;;;;;84.15;65.03;;;;;;;;;;9914798;28;20054;-86
2024/02/18 04:48:15;;;;;;;73.53;56.47;;;;;;;;;;9911996;28;20054;-87
2024/02/18 04:53:07;;;;;;;75.38;55.42;;;;;;;;;;9913235;28;20074;-87
2024/02/18 04:57:59;;;;;;;75.50;57.53;;;;;;;;;;9913091;28;20055;-87
2024/02/18 05:02:51;;;;;;;94.40;69.20;;;;;;;;;;9917161;28;20093;-87
2024/02/18 05:07:43;;;;;;;95.75;68.38;;;;;;;;;;9921813;28;20446;-86
2024/02/18 05:12:35;;;;;;;86.50;61.80;;;;;;;;;;9914279;28;20102;-88
2024/02/18 05:17:27;;;;;;;77.20;58.30;;;;;;;;;;9912824;28;20157;-88
2024/02/18 05:22:19;;;;;;;79.30;58.67;;;;;;;;;;9920779;28;20047;-87
2024/02/18 05:27:11;;;;;;;89.72;63.42;;;;;;;;;;9911483;28;20434;-88
2024/02/18 05:32:04;;;;;;;77.30;58.05;;;;;;;;;;9911617;28;20073;-88
2024/02/18 05:36:55;;;;;;;81.18;59.65;;;;;;;;;;9914331;28;20074;-88
2024/02/18 05:41:48;;;;;;;95.68;70.10;;;;;;;;;;9910931;28;20073;-88
2024/02/18 05:46:40;;;;;;;89.40;67.57;;;;;;;;;;9910197;28;20146;-89
2024/02/18 05:51:32;;;;;;;104.63;76.45;;;;;;;;;;9915112;28;20039;-89
2024/02/18 05:56:24;;;;;;;90.88;66.55;;;;;;;;;;9918503;28;20382;-89
2024/02/18 06:01:16;;;;;;;88.55;64.82;;;;;;;;;;9911845;28;20382;-89
2024/02/18 06:06:08;;;;;;;84.57;60.97;;;;;;;;;;9911496;28;20047;-89
2024/02/18 06:11:00;;;;;;;98.40;68.72;;;;;;;;;;9912463;28;20042;-87
2024/02/18 06:15:52;;;;;;;103.22;70.47;;;;;;;;;;9911781;28;20051;-87
2024/02/18 06:20:45;;;;;;;122.18;91.38;;;;;;;;;;9905280;28;20047;-88
2024/02/18 06:25:37;;;;;;;144.93;113.95;;;;;;;;;;9929996;28;20047;-90
2024/02/18 06:30:29;;;;;;;122.55;87.05;;;;;;;;;;9923026;28;20092;-89
2024/02/18 06:35:21;;;;;;;109.20;83.55;;;;;;;;;;9934149;28;20129;-89
2024/02/18 06:40:13;;;;;;;164.52;114.55;;;;;;;;;;9929944;28;20047;-88
2024/02/18 06:45:05;;;;;;;194.60;141.77;;;;;;;;;;9929134;28;20055;-90
2024/02/18 06:49:58;;;;;;;138.40;101.30;;;;;;;;;;9918255;28;20047;-90
2024/02/18 06:54:50;;;;;;;87.78;65.57;;;;;;;;;;9930158;28;20070;-90
2024/02/18 06:59:42;;;;;;;88.05;60.83;;;;;;;;;;9944249;28;20039;-90
2024/02/18 07:04:34;;;;;;;73.90;51.88;;;;;;;;;;9943369;28;20502;-90
2024/02/18 07:09:26;;;;;;;74.05;52.83;;;;;;;;;;9949692;28;20047;-89
2024/02/18 07:14:18;;;;;;;65.40;47.22;;;;;;;;;;9952053;28;20426;-88
2024/02/18 07:19:10;;;;;;;61.03;45.08;;;;;;;;;;9946422;28;20367;-90
2024/02/18 07:24:02;;;;;;;57.47;44.95;;;;;;;;;;9940243;28;20113;-81
2024/02/18 07:28:54;;;;;;;64.18;47.70;;;;;;;;;;9943164;28;20055;-81
2024/02/18 07:33:51;;;;;;;71.10;51.63;;;;;;;;;;9948151;28;20105;-80
2024/02/18 07:38:43;;;;;;;80.53;57.53;;;;;;;;;;9947234;28;20065;-80
2024/02/18 07:43:35;;;;;;;86.65;61.30;;;;;;;;;;9951030;28;20462;-80
2024/02/18 07:48:27;;;;;;;105.22;77.47;;;;;;;;;;9950007;28;20077;-80
2024/02/18 07:53:19;;;;;;;107.25;74.40;;;;;;;;;;9950129;28;20058;-81
2024/02/18 07:58:14;;;;;;;103.28;78.82;;;;;;;;;;9949693;28;20458;-80
2024/02/18 08:03:07;;;;;;;121.65;88.38;;;;;;;;;;9948785;28;20479;-80
2024/02/18 08:07:59;;;;;;;129.32;91.85;;;;;;;;;;9950028;28;20085;-82
2024/02/18 08:12:51;;;;;;;127.10;92.25;;;;;;;;;;9950604;28;20129;-82
2024/02/18 08:17:44;;;;;;;117.93;88.28;;;;;;;;;;9948698;28;20427;-82
2024/02/18 08:22:36;;;;;;;115.63;83.80;;;;;;;;;;9946911;28;20094;-82
2024/02/18 08:27:28;;;;;;;95.53;70.50;;;;;;;;;;9942465;28;20039;-84
2024/02/18 08:32:21;;;;;;;86.25;64.30;;;;;;;;;;9936928;28;20388;-87
2024/02/18 08:37:13;;;;;;;89.97;63.40;;;;;;;;;;9941408;28;20067;-90
2024/02/18 08:42:05;;;;;;;95.28;72.50;;;;;;;;;;9929267;28;20494;-88
2024/02/18 08:46:57;;;;;;;102.63;74.32;;;;;;;;;;9945938;28;20050;-87
2024/02/18 08:51:49;;;;;;;95.05;71.80;;;;;;;;;;9944910;28;20034;-86
2024/02/18 08:56:41;;;;;;;97.32;69.22;;;;;;;;;;9946788;28;20051;-87
2024/02/18 09:01:33;;;;;;;111.15;80.90;;;;;;;;;;9946576;28;20058;-87
2024/02/18 09:06:27;;;;;;;116.68;85.25;;;;;;;;;;9922930;28;20087;-86
2024/02/18 09:11:19;;;;;;;106.43;74.70;;;;;;;;;;9942768;28;20493;-87
2024/02/18 09:16:11;;;;;;;100.30;75.95;;;;;;;;;;9940405;28;20085;-88
2024/02/18 09:21:05;;;;;;;107.70;76.60;;;;;;;;;;9929783;28;20062;-86
2024/02/18 09:25:57;;;;;;;102.10;74.60;;;;;;;;;;9943186;28;20051;-86
2024/02/18 09:30:49;;;;;;;93.55;68.93;;;;;;;;;;9942294;28;20054;-86
2024/02/18 09:35:41;;;;;;;99.30;71.57;;;;;;;;;;9942776;28;20051;-87
2024/02/18 09:40:33;;;;;;;99.75;72.65;;;;;;;;;;9944889;28;20070;-87
2024/02/18 09:45:32;;;;;;;94.00;70.30;;;;;;;;;;9927728;28;20411;-87
2024/02/18 09:50:27;;;;;;;82.78;60.33;;;;;;;;;;10335753;23;20332;-83
2024/02/18 09:55:19;;;;;;;84.60;58.97;;;;;;;;;;9878966;29;20095;-84
2024/02/18 10:00:12;;;;;;;79.22;60.30;;;;;;;;;;9881946;29;20055;-83
2024/02/18 10:05:04;;;;;;;79.72;60.55;;;;;;;;;;9892342;29;20122;-83
2024/02/18 10:09:57;;;;;;;89.38;64.45;;;;;;;;;;10199187;23;20059;-84
2024/02/18 10:15:01;;;;;;;90.10;65.63;;;;;;;;;;9947202;28;20429;-88
2024/02/18 10:19:55;;;;;;;88.78;64.63;;;;;;;;;;9944907;28;20049;-88
2024/02/18 10:24:47;;;;;;;87.00;67.00;;;;;;;;;;9937890;28;20137;-88
2024/02/18 10:29:39;;;;;;;88.97;64.38;;;;;;;;;;9948518;28;20071;-87
2024/02/18 10:34:31;;;;;;;85.93;63.03;;;;;;;;;;9949509;28;20043;-89
2024/02/18 10:39:26;;;;;;;85.18;64.15;;;;;;;;;;9945149;28;20053;-87
2024/02/18 10:44:18;;;;;;;95.72;64.90;;;;;;;;;;9930309;28;20747;-84
2024/02/18 10:49:22;;;;;;;90.78;63.38;;;;;;;;;;9934896;28;20090;-84
2024/02/18 10:54:32;;;;;;;89.05;63.55;;;;;;;;;;9928633;28;20050;-82
2024/02/18 10:59:56;;;;;;;92.65;63.97;;;;;;;;;;9936937;28;20520;-83
2024/02/18 11:04:48;;;;;;;89.43;66.00;;;;;;;;;;9949055;28;20129;-83
2024/02/18 11:09:41;;;;;;;88.47;63.97;;;;;;;;;;9947885;28;20101;-82
2024/02/18 11:14:34;;;;;;;85.78;64.07;;;;;;;;;;9937169;28;20061;-83
2024/02/18 11:19:26;;;;;;;87.35;64.10;;;;;;;;;;9953781;28;20078;-82
2024/02/18 11:24:22;;;;;;;80.40;63.78;;;;;;;;;;9953730;28;20528;-81
2024/02/18 11:29:15;;;;;;;93.18;66.20;;;;;;;;;;9951780;28;20559;-76
2024/02/18 11:34:07;;;;;;;88.95;67.15;;;;;;;;;;9935971;28;20390;-79
2024/02/18 11:39:01;;;;;;;97.47;67.63;;;;;;;;;;9953148;28;20054;-85
2024/02/18 11:44:07;;;;;;;93.47;66.13;;;;;;;;;;9947845;28;20449;-88
2024/02/18 11:48:59;;;;;;;90.47;67.38;;;;;;;;;;9941749;28;20047;-88
2024/02/18 11:53:58;;;;;;;86.80;64.10;;;;;;;;;;9935496;28;20047;-89
2024/02/18 11:58:50;;;;;;;102.30;75.63;;;;;;;;;;9948398;28;20054;-78
2024/02/18 12:03:46;;;;;;;98.15;71.22;;;;;;;;;;9949172;28;20461;-76
2024/02/18 12:08:38;;;;;;;93.65;68.95;;;;;;;;;;9947753;28;20425;-73
